createdAt,value
2023-01-24T00:00:48.615Z,21.49
2023-01-24T00:01:52.861Z,21.48
2023-01-24T00:02:57.133Z,21.47
2023-01-24T00:04:01.366Z,21.52
2023-01-24T00:05:05.630Z,21.49
2023-01-24T00:06:09.858Z,21.48
2023-01-24T00:07:14.114Z,21.52
2023-01-24T00:08:18.355Z,21.47
2023-01-24T00:09:22.598Z,21.51
2023-01-24T00:10:26.841Z,21.54
2023-01-24T00:11:31.107Z,21.52
2023-01-24T00:12:35.327Z,21.51
2023-01-24T00:13:39.549Z,21.43
2023-01-24T00:14:43.929Z,21.46
2023-01-24T00:15:48.194Z,21.42
2023-01-24T00:16:52.546Z,21.44
2023-01-24T00:17:56.789Z,21.41
2023-01-24T00:19:01.037Z,21.44
2023-01-24T00:20:05.311Z,21.4
2023-01-24T00:21:09.566Z,21.37
2023-01-24T00:22:13.831Z,21.4
2023-01-24T00:23:18.096Z,21.37
2023-01-24T00:24:22.400Z,21.41
2023-01-24T00:25:26.788Z,21.39
2023-01-24T00:26:31.061Z,21.39
2023-01-24T00:27:35.402Z,21.4
2023-01-24T00:28:39.651Z,21.43
2023-01-24T00:29:43.901Z,21.37
2023-01-24T00:30:48.193Z,21.37
2023-01-24T00:31:52.669Z,21.37
2023-01-24T00:32:57.310Z,21.41
2023-01-24T00:34:01.576Z,21.36
2023-01-24T00:35:05.805Z,21.37
2023-01-24T00:36:10.053Z,21.42
2023-01-24T00:37:14.307Z,21.42
2023-01-24T00:38:18.589Z,21.41
2023-01-24T00:39:22.837Z,21.38
2023-01-24T00:40:27.054Z,21.39
2023-01-24T00:41:31.550Z,21.4
2023-01-24T00:42:35.794Z,21.37
2023-01-24T00:43:40.078Z,21.34
2023-01-24T00:44:44.363Z,21.33
2023-01-24T00:45:48.667Z,21.31
2023-01-24T00:46:53.058Z,21.32
2023-01-24T00:47:57.299Z,21.33
2023-01-24T00:49:01.632Z,21.35
2023-01-24T00:50:07.953Z,21.36
2023-01-24T00:51:13.849Z,21.35
2023-01-24T00:52:18.644Z,21.36
2023-01-24T00:53:23.565Z,21.32
2023-01-24T00:54:27.843Z,21.33
2023-01-24T00:55:32.077Z,21.32
2023-01-24T00:56:36.284Z,21.32
2023-01-24T00:57:40.528Z,21.32
2023-01-24T00:58:44.816Z,21.33
2023-01-24T00:59:49.109Z,21.33
2023-01-24T01:00:53.397Z,21.31
2023-01-24T01:01:57.623Z,21.26
2023-01-24T01:03:02.098Z,21.23
2023-01-24T01:04:06.616Z,21.23
2023-01-24T01:05:10.843Z,21.26
2023-01-24T01:06:15.288Z,21.33
2023-01-24T01:07:19.567Z,21.33
2023-01-24T01:08:23.824Z,21.33
2023-01-24T01:09:28.067Z,21.35
2023-01-24T01:10:32.305Z,21.34
2023-01-24T01:11:36.576Z,21.34
2023-01-24T01:12:40.786Z,21.32
2023-01-24T01:13:45.016Z,21.35
2023-01-24T01:14:49.359Z,21.32
2023-01-24T01:15:53.626Z,21.33
2023-01-24T01:16:58.005Z,21.35
2023-01-24T01:18:02.272Z,21.33
2023-01-24T01:19:06.549Z,21.34
2023-01-24T01:20:10.789Z,21.32
2023-01-24T01:21:15.017Z,21.3
2023-01-24T01:22:19.248Z,21.27
2023-01-24T01:23:23.462Z,21.25
2023-01-24T01:24:27.692Z,21.23
2023-01-24T01:25:31.965Z,21.21
2023-01-24T01:26:36.213Z,21.21
2023-01-24T01:27:40.465Z,21.21
2023-01-24T01:28:44.740Z,21.21
2023-01-24T01:29:48.970Z,21.2
2023-01-24T01:30:53.368Z,21.19
2023-01-24T01:31:58.098Z,21.18
2023-01-24T01:33:02.772Z,21.17
2023-01-24T01:34:07.026Z,21.16
2023-01-24T01:35:11.324Z,21.15
2023-01-24T01:36:15.615Z,21.15
2023-01-24T01:37:19.938Z,21.14
2023-01-24T01:38:24.238Z,21.15
2023-01-24T01:39:28.529Z,21.19
2023-01-24T01:40:32.776Z,21.16
2023-01-24T01:41:37.038Z,21.14
2023-01-24T01:42:41.273Z,21.15
2023-01-24T01:43:45.542Z,21.13
2023-01-24T01:44:49.779Z,21.15
2023-01-24T01:45:54.152Z,21.15
2023-01-24T01:46:58.687Z,21.13
2023-01-24T01:48:02.940Z,21.14
2023-01-24T01:49:07.282Z,21.13
2023-01-24T01:50:11.561Z,21.12
2023-01-24T01:51:15.827Z,21.12
2023-01-24T01:52:20.076Z,21.13
2023-01-24T01:53:24.303Z,21.12
2023-01-24T01:54:28.540Z,21.11
2023-01-24T01:55:32.817Z,21.13
2023-01-24T01:56:37.108Z,21.13
2023-01-24T01:57:41.313Z,21.1
2023-01-24T01:58:45.552Z,21.12
2023-01-24T01:59:49.871Z,21.11
2023-01-24T02:00:54.254Z,21.12
2023-01-24T02:01:59.022Z,21.12
2023-01-24T02:03:03.399Z,21.11
2023-01-24T02:04:07.629Z,21.13
2023-01-24T02:05:11.912Z,21.14
2023-01-24T02:06:16.201Z,21.12
2023-01-24T02:07:20.437Z,21.11
2023-01-24T02:08:24.811Z,21.12
2023-01-24T02:09:29.112Z,21.11
2023-01-24T02:10:33.352Z,21.1
2023-01-24T02:11:37.632Z,21.16
2023-01-24T02:12:41.960Z,21.15
2023-01-24T02:13:46.209Z,21.12
2023-01-24T02:14:50.495Z,21.12
2023-01-24T02:15:54.732Z,21.15
2023-01-24T02:16:58.984Z,21.17
2023-01-24T02:18:03.429Z,21.18
2023-01-24T02:19:07.718Z,21.14
2023-01-24T02:20:11.967Z,21.15
2023-01-24T02:21:16.419Z,21.18
2023-01-24T02:22:20.710Z,21.16
2023-01-24T02:23:24.944Z,21.14
2023-01-24T02:24:29.211Z,21.13
2023-01-24T02:25:33.432Z,21.14
2023-01-24T02:26:37.764Z,21.13
2023-01-24T02:27:42.037Z,21.11
2023-01-24T02:28:46.455Z,21.12
2023-01-24T02:29:50.688Z,21.13
2023-01-24T02:30:54.969Z,21.12
2023-01-24T02:31:59.477Z,21.12
2023-01-24T02:33:03.937Z,21.1
2023-01-24T02:34:08.388Z,21.1
2023-01-24T02:35:12.605Z,21.1
2023-01-24T02:36:16.860Z,21.11
2023-01-24T02:37:21.085Z,21.08
2023-01-24T02:38:25.364Z,21.07
2023-01-24T02:39:29.594Z,21.09
2023-01-24T02:40:33.835Z,21.13
2023-01-24T02:41:38.139Z,21.09
2023-01-24T02:42:42.443Z,21.1
2023-01-24T02:43:46.719Z,21.1
2023-01-24T02:44:51.013Z,21.1
2023-01-24T02:45:55.299Z,21.09
2023-01-24T02:46:59.840Z,21.09
2023-01-24T02:48:04.085Z,21.11
2023-01-24T02:49:08.352Z,21.07
2023-01-24T02:50:12.611Z,21.06
2023-01-24T02:51:16.920Z,21.06
2023-01-24T02:52:21.179Z,21.1
2023-01-24T02:53:25.455Z,21.12
2023-01-24T02:54:29.723Z,21.12
2023-01-24T02:55:33.954Z,21.13
2023-01-24T02:56:38.179Z,21.13
2023-01-24T02:57:42.419Z,21.1
2023-01-24T02:58:46.657Z,21.08
2023-01-24T02:59:51.019Z,21.09
2023-01-24T03:00:55.326Z,21.07
2023-01-24T03:01:59.886Z,21.08
2023-01-24T03:03:04.256Z,21.07
2023-01-24T03:04:08.501Z,21.08
2023-01-24T03:05:12.746Z,21.05
2023-01-24T03:06:16.999Z,21.07
2023-01-24T03:07:21.240Z,21.06
2023-01-24T03:08:25.521Z,21.05
2023-01-24T03:09:29.772Z,21.06
2023-01-24T03:10:34.039Z,21.04
2023-01-24T03:11:38.277Z,21.06
2023-01-24T03:12:42.566Z,21.03
2023-01-24T03:13:46.790Z,21.03
2023-01-24T03:14:51.038Z,21.06
2023-01-24T03:15:55.342Z,21.05
2023-01-24T03:16:59.612Z,21.05
2023-01-24T03:18:03.885Z,21.02
2023-01-24T03:19:08.176Z,21.03
2023-01-24T03:20:12.441Z,21.01
2023-01-24T03:21:16.677Z,21
2023-01-24T03:22:20.923Z,21.02
2023-01-24T03:23:25.211Z,21.03
2023-01-24T03:24:29.487Z,21
2023-01-24T03:25:33.765Z,21.01
2023-01-24T03:26:38.045Z,21.01
2023-01-24T03:27:42.279Z,21
2023-01-24T03:28:46.514Z,21.05
2023-01-24T03:29:50.755Z,21.04
2023-01-24T03:30:55.006Z,21.02
2023-01-24T03:31:59.422Z,21.01
2023-01-24T03:33:04.023Z,20.99
2023-01-24T03:34:08.267Z,20.99
2023-01-24T03:35:12.556Z,20.99
2023-01-24T03:36:16.803Z,20.95
2023-01-24T03:37:21.068Z,20.92
2023-01-24T03:38:25.300Z,20.92
2023-01-24T03:39:29.581Z,20.92
2023-01-24T03:40:33.812Z,20.92
2023-01-24T03:41:38.065Z,20.9
2023-01-24T03:42:44.069Z,20.92
2023-01-24T03:43:48.318Z,20.91
2023-01-24T03:44:52.548Z,20.91
2023-01-24T03:45:56.863Z,20.91
2023-01-24T03:47:01.216Z,20.89
2023-01-24T03:48:05.446Z,20.9
2023-01-24T03:49:09.694Z,20.91
2023-01-24T03:50:13.945Z,20.9
2023-01-24T03:51:18.169Z,20.89
2023-01-24T03:52:22.416Z,20.87
2023-01-24T03:53:26.707Z,20.89
2023-01-24T03:54:30.948Z,20.92
2023-01-24T03:55:35.201Z,20.94
2023-01-24T03:56:39.502Z,20.93
2023-01-24T03:57:43.741Z,20.94
2023-01-24T03:58:47.999Z,20.92
2023-01-24T03:59:52.274Z,20.94
2023-01-24T04:00:56.572Z,20.92
2023-01-24T04:02:00.993Z,20.89
2023-01-24T04:03:05.433Z,20.88
2023-01-24T04:04:09.677Z,20.91
2023-01-24T04:05:14.115Z,20.9
2023-01-24T04:06:18.363Z,20.88
2023-01-24T04:07:26.777Z,20.88
2023-01-24T04:08:31.502Z,20.91
2023-01-24T04:09:35.748Z,20.9
2023-01-24T04:10:40.030Z,20.9
2023-01-24T04:11:44.282Z,20.9
2023-01-24T04:12:48.508Z,20.9
2023-01-24T04:13:52.749Z,20.93
2023-01-24T04:14:56.998Z,20.91
2023-01-24T04:16:01.240Z,20.89
2023-01-24T04:17:05.594Z,20.9
2023-01-24T04:18:09.822Z,20.88
2023-01-24T04:19:14.055Z,20.89
2023-01-24T04:20:18.293Z,20.92
2023-01-24T04:21:22.548Z,20.89
2023-01-24T04:22:26.805Z,20.93
2023-01-24T04:23:31.053Z,20.88
2023-01-24T04:24:35.304Z,20.89
2023-01-24T04:25:39.553Z,20.89
2023-01-24T04:26:43.832Z,20.93
2023-01-24T04:27:48.123Z,20.89
2023-01-24T04:28:52.428Z,20.87
2023-01-24T04:29:56.670Z,20.86
2023-01-24T04:31:01.025Z,20.86
2023-01-24T04:32:05.800Z,20.82
2023-01-24T04:33:10.076Z,20.83
2023-01-24T04:34:14.352Z,20.83
2023-01-24T04:35:18.889Z,20.87
2023-01-24T04:36:24.302Z,20.88
2023-01-24T04:37:28.586Z,20.86
2023-01-24T04:38:32.835Z,20.84
2023-01-24T04:39:37.183Z,20.83
2023-01-24T04:40:41.424Z,20.83
2023-01-24T04:41:45.673Z,20.82
2023-01-24T04:42:49.927Z,20.81
2023-01-24T04:43:54.182Z,20.85
2023-01-24T04:44:58.393Z,20.83
2023-01-24T04:46:02.644Z,20.82
2023-01-24T04:47:06.944Z,20.83
2023-01-24T04:48:11.456Z,20.81
2023-01-24T04:49:15.741Z,20.84
2023-01-24T04:50:19.952Z,20.82
2023-01-24T04:51:24.170Z,20.78
2023-01-24T04:52:28.420Z,20.79
2023-01-24T04:53:32.632Z,20.79
2023-01-24T04:54:36.887Z,20.83
2023-01-24T04:55:41.121Z,20.83
2023-01-24T04:56:45.406Z,20.85
2023-01-24T04:57:49.791Z,20.84
2023-01-24T04:58:53.998Z,20.82
2023-01-24T04:59:58.234Z,20.85
2023-01-24T05:01:03.731Z,20.86
2023-01-24T05:02:08.199Z,20.87
2023-01-24T05:03:12.580Z,20.85
2023-01-24T05:04:16.994Z,20.91
2023-01-24T05:05:21.634Z,20.92
2023-01-24T05:06:26.977Z,20.92
2023-01-24T05:07:31.266Z,21
2023-01-24T05:08:35.624Z,21.1
2023-01-24T05:09:39.890Z,21.18
2023-01-24T05:10:44.142Z,21.3
2023-01-24T05:11:48.370Z,21.42
2023-01-24T05:12:52.584Z,21.54
2023-01-24T05:13:56.839Z,21.69
2023-01-24T05:15:01.112Z,21.81
2023-01-24T05:16:05.462Z,21.92
2023-01-24T05:17:09.774Z,22.04
2023-01-24T05:18:14.208Z,22.13
2023-01-24T05:19:18.433Z,22.22
2023-01-24T05:20:23.016Z,22.3
2023-01-24T05:21:27.253Z,22.34
2023-01-24T05:22:31.474Z,22.39
2023-01-24T05:23:35.757Z,22.43
2023-01-24T05:24:40.306Z,22.48
2023-01-24T05:25:44.527Z,22.49
2023-01-24T05:26:48.761Z,22.53
2023-01-24T05:27:53.021Z,22.53
2023-01-24T05:28:57.242Z,22.54
2023-01-24T05:30:01.489Z,22.51
2023-01-24T05:31:05.845Z,22.53
2023-01-24T05:32:10.194Z,22.51
2023-01-24T05:33:14.444Z,22.48
2023-01-24T05:34:18.789Z,22.47
2023-01-24T05:35:23.297Z,22.47
2023-01-24T05:36:27.967Z,22.45
2023-01-24T05:37:32.292Z,22.43
2023-01-24T05:38:36.556Z,22.39
2023-01-24T05:39:40.921Z,22.36
2023-01-24T05:40:45.195Z,22.34
2023-01-24T05:41:49.420Z,22.33
2023-01-24T05:42:53.732Z,22.3
2023-01-24T05:43:57.974Z,22.26
2023-01-24T05:45:02.230Z,22.24
2023-01-24T05:46:06.539Z,22.22
2023-01-24T05:47:10.985Z,22.19
2023-01-24T05:48:15.211Z,22.17
2023-01-24T05:49:19.459Z,22.13
2023-01-24T05:50:23.722Z,22.11
2023-01-24T05:51:27.961Z,22.09
2023-01-24T05:52:32.241Z,22.07
2023-01-24T05:53:36.495Z,22.03
2023-01-24T05:54:40.735Z,22.01
2023-01-24T05:55:45.025Z,21.99
2023-01-24T05:56:49.325Z,21.97
2023-01-24T05:57:53.563Z,21.93
2023-01-24T05:58:57.830Z,21.92
2023-01-24T06:00:02.128Z,21.9
2023-01-24T06:01:06.410Z,21.87
2023-01-24T06:02:10.733Z,21.85
2023-01-24T06:03:15.476Z,21.83
2023-01-24T06:04:20.224Z,21.81
2023-01-24T06:05:24.867Z,21.78
2023-01-24T06:06:29.716Z,21.8
2023-01-24T06:07:34.057Z,21.79
2023-01-24T06:08:38.326Z,21.8
2023-01-24T06:09:42.581Z,21.81
2023-01-24T06:10:46.837Z,21.78
2023-01-24T06:11:51.077Z,21.79
2023-01-24T06:12:55.375Z,21.79
2023-01-24T06:13:59.633Z,21.79
2023-01-24T06:15:03.887Z,21.79
2023-01-24T06:16:08.220Z,21.78
2023-01-24T06:17:12.632Z,21.76
2023-01-24T06:18:16.933Z,21.74
2023-01-24T06:19:21.186Z,21.73
2023-01-24T06:20:25.442Z,21.7
2023-01-24T06:21:29.705Z,21.69
2023-01-24T06:22:33.967Z,21.66
2023-01-24T06:23:38.211Z,21.65
2023-01-24T06:24:42.458Z,21.64
2023-01-24T06:25:46.720Z,21.63
2023-01-24T06:26:51.005Z,21.62
2023-01-24T06:27:55.651Z,21.63
2023-01-24T06:28:59.912Z,21.6
2023-01-24T06:30:04.175Z,21.62
2023-01-24T06:31:08.672Z,21.59
2023-01-24T06:32:13.412Z,21.58
2023-01-24T06:33:17.647Z,21.59
2023-01-24T06:34:21.878Z,21.56
2023-01-24T06:35:26.116Z,21.55
2023-01-24T06:36:30.582Z,21.56
2023-01-24T06:37:34.856Z,21.55
2023-01-24T06:38:39.105Z,21.54
2023-01-24T06:39:43.548Z,21.54
2023-01-24T06:40:47.832Z,21.51
2023-01-24T06:41:52.080Z,21.51
2023-01-24T06:42:56.330Z,21.5
2023-01-24T06:44:00.563Z,21.52
2023-01-24T06:45:04.892Z,21.51
2023-01-24T06:46:09.184Z,21.48
2023-01-24T06:47:13.740Z,21.49
2023-01-24T06:48:18.184Z,21.47
2023-01-24T06:49:22.584Z,21.48
2023-01-24T06:50:26.940Z,21.48
2023-01-24T06:51:31.184Z,21.47
2023-01-24T06:52:35.461Z,21.49
2023-01-24T06:53:40.002Z,21.53
2023-01-24T06:54:44.262Z,21.58
2023-01-24T06:55:48.763Z,21.63
2023-01-24T06:56:53.069Z,21.66
2023-01-24T06:57:57.517Z,21.7
2023-01-24T06:59:01.760Z,21.65
2023-01-24T07:00:05.987Z,21.65
2023-01-24T07:01:10.288Z,21.62
2023-01-24T07:02:14.656Z,21.57
2023-01-24T07:03:20.431Z,21.53
2023-01-24T07:04:25.862Z,21.49
2023-01-24T07:05:30.119Z,21.47
2023-01-24T07:06:34.530Z,21.45
2023-01-24T07:07:38.758Z,21.46
2023-01-24T07:08:43.011Z,21.44
2023-01-24T07:09:47.276Z,21.41
2023-01-24T07:10:51.536Z,21.42
2023-01-24T07:11:55.844Z,21.43
2023-01-24T07:13:00.150Z,21.41
2023-01-24T07:14:04.391Z,21.41
2023-01-24T07:15:08.623Z,21.4
2023-01-24T07:16:13.023Z,21.38
2023-01-24T07:17:17.328Z,21.35
2023-01-24T07:18:21.576Z,21.34
2023-01-24T07:19:25.820Z,21.32
2023-01-24T07:20:30.143Z,21.32
2023-01-24T07:21:34.396Z,21.3
2023-01-24T07:22:38.712Z,21.29
2023-01-24T07:23:43.015Z,21.3
2023-01-24T07:24:47.365Z,21.29
2023-01-24T07:25:51.599Z,21.32
2023-01-24T07:26:55.867Z,21.28
2023-01-24T07:28:00.163Z,21.28
2023-01-24T07:29:04.503Z,21.25
2023-01-24T07:30:08.787Z,21.29
2023-01-24T07:31:13.154Z,21.26
2023-01-24T07:32:17.835Z,21.22
2023-01-24T07:33:22.368Z,21.2
2023-01-24T07:34:26.609Z,21.18
2023-01-24T07:35:30.882Z,21.17
2023-01-24T07:36:35.140Z,21.17
2023-01-24T07:37:39.393Z,21.17
2023-01-24T07:38:43.660Z,21.18
2023-01-24T07:39:47.908Z,21.16
2023-01-24T07:40:52.194Z,21.22
2023-01-24T07:41:56.502Z,21.3
2023-01-24T07:43:00.795Z,21.34
2023-01-24T07:44:05.061Z,21.39
2023-01-24T07:45:09.407Z,21.41
2023-01-24T07:46:13.728Z,21.45
2023-01-24T07:47:18.182Z,21.48
2023-01-24T07:48:22.466Z,21.49
2023-01-24T07:49:26.933Z,21.55
2023-01-24T07:50:31.200Z,21.57
2023-01-24T07:51:35.510Z,21.62
2023-01-24T07:52:39.818Z,21.67
2023-01-24T07:53:44.083Z,21.71
2023-01-24T07:54:48.314Z,21.74
2023-01-24T07:56:01.812Z,21.77
2023-01-24T07:57:06.588Z,21.81
2023-01-24T07:58:10.837Z,21.81
2023-01-24T07:59:15.225Z,21.82
2023-01-24T08:00:20.709Z,21.81
2023-01-24T08:01:26.056Z,21.78
2023-01-24T08:02:30.429Z,21.78
2023-01-24T08:03:34.838Z,21.77
2023-01-24T08:04:39.088Z,21.77
2023-01-24T08:05:43.342Z,21.74
2023-01-24T08:06:47.600Z,21.72
2023-01-24T08:07:52.051Z,21.71
2023-01-24T08:08:56.281Z,21.69
2023-01-24T08:10:00.540Z,21.67
2023-01-24T08:11:04.841Z,21.64
2023-01-24T08:12:09.096Z,21.61
2023-01-24T08:13:13.417Z,21.59
2023-01-24T08:14:17.692Z,21.58
2023-01-24T08:15:21.925Z,21.57
2023-01-24T08:16:26.217Z,21.56
2023-01-24T08:17:30.790Z,21.53
2023-01-24T08:18:35.079Z,21.53
2023-01-24T08:19:55.704Z,21.52
2023-01-24T08:21:01.500Z,21.5
2023-01-24T08:22:05.782Z,21.5
2023-01-24T08:23:10.125Z,21.5
2023-01-24T08:24:14.469Z,21.49
2023-01-24T08:25:18.892Z,21.47
2023-01-24T08:26:23.561Z,21.46
2023-01-24T08:27:27.841Z,21.46
2023-01-24T08:28:32.349Z,21.45
2023-01-24T08:29:36.614Z,21.45
2023-01-24T08:30:40.885Z,21.43
2023-01-24T08:31:45.219Z,21.4
2023-01-24T08:32:49.569Z,21.37
2023-01-24T08:33:53.801Z,21.41
2023-01-24T08:34:58.076Z,21.39
2023-01-24T08:36:02.350Z,21.36
2023-01-24T08:37:06.594Z,21.35
2023-01-24T08:38:10.834Z,21.33
2023-01-24T08:39:21.051Z,21.31
2023-01-24T08:40:38.201Z,21.3
2023-01-24T08:41:53.761Z,21.28
2023-01-24T08:42:58.031Z,21.26
2023-01-24T08:44:02.305Z,21.25
2023-01-24T08:45:06.592Z,21.23
2023-01-24T08:46:10.882Z,21.22
2023-01-24T08:47:15.501Z,21.24
2023-01-24T08:48:19.776Z,21.24
2023-01-24T08:49:24.056Z,21.22
2023-01-24T08:50:28.376Z,21.21
2023-01-24T08:51:32.617Z,21.19
2023-01-24T08:52:36.863Z,21.19
2023-01-24T08:53:41.182Z,21.17
2023-01-24T08:54:45.443Z,21.17
2023-01-24T08:55:49.673Z,21.18
2023-01-24T08:56:53.898Z,21.19
2023-01-24T08:57:58.135Z,21.21
2023-01-24T08:59:02.428Z,21.24
2023-01-24T09:00:06.728Z,21.25
2023-01-24T09:01:10.998Z,21.28
2023-01-24T09:02:15.394Z,21.31
2023-01-24T09:03:19.845Z,21.35
2023-01-24T09:04:24.089Z,21.35
2023-01-24T09:05:28.365Z,21.38
2023-01-24T09:06:33.029Z,21.4
2023-01-24T09:07:37.332Z,21.39
2023-01-24T09:08:41.627Z,21.41
2023-01-24T09:09:45.857Z,21.39
2023-01-24T09:10:50.108Z,21.41
2023-01-24T09:11:54.349Z,21.4
2023-01-24T09:12:58.648Z,21.4
2023-01-24T09:14:03.028Z,21.38
2023-01-24T09:15:07.282Z,21.39
2023-01-24T09:16:11.616Z,21.37
2023-01-24T09:17:15.985Z,21.35
2023-01-24T09:18:20.298Z,21.34
2023-01-24T09:19:24.561Z,21.35
2023-01-24T09:20:28.787Z,21.33
2023-01-24T09:21:33.244Z,21.33
2023-01-24T09:22:37.583Z,21.32
2023-01-24T09:23:41.863Z,21.31
2023-01-24T09:24:46.253Z,21.29
2023-01-24T09:25:50.680Z,21.27
2023-01-24T09:26:54.920Z,21.27
2023-01-24T09:27:59.187Z,21.28
2023-01-24T09:29:03.482Z,21.28
2023-01-24T09:30:07.748Z,21.27
2023-01-24T09:31:12.036Z,21.25
2023-01-24T09:32:16.456Z,21.28
2023-01-24T09:33:20.967Z,21.26
2023-01-24T09:34:25.264Z,21.26
2023-01-24T09:35:29.594Z,21.27
2023-01-24T09:36:33.843Z,21.24
2023-01-24T09:37:38.121Z,21.22
2023-01-24T09:38:47.611Z,21.23
2023-01-24T09:40:09.165Z,21.22
2023-01-24T09:41:13.441Z,21.21
2023-01-24T09:42:17.683Z,21.17
2023-01-24T09:43:21.933Z,21.17
2023-01-24T09:44:26.187Z,21.14
2023-01-24T09:45:30.554Z,21.1
2023-01-24T09:46:35.010Z,21.12
2023-01-24T09:47:39.499Z,21.1
2023-01-24T09:48:43.729Z,21.1
2023-01-24T09:49:47.992Z,21.09
2023-01-24T09:50:52.278Z,21.09
2023-01-24T09:51:56.508Z,21.08
2023-01-24T09:53:00.717Z,21.08
2023-01-24T09:54:04.960Z,21.07
2023-01-24T09:55:09.236Z,21.08
2023-01-24T09:56:14.752Z,21.09
2023-01-24T09:57:20.553Z,21.1
2023-01-24T09:58:24.793Z,21.13
2023-01-24T09:59:29.034Z,21.14
2023-01-24T10:00:33.291Z,21.18
2023-01-24T10:01:37.521Z,21.25
2023-01-24T10:02:41.783Z,21.32
2023-01-24T10:03:46.025Z,21.39
2023-01-24T10:04:50.356Z,21.47
2023-01-24T10:05:54.616Z,21.57
2023-01-24T10:06:58.896Z,21.67
2023-01-24T10:08:03.184Z,21.75
2023-01-24T10:09:07.401Z,21.84
2023-01-24T10:10:11.652Z,21.93
2023-01-24T10:11:15.893Z,22.03
2023-01-24T10:12:20.143Z,22.06
2023-01-24T10:13:24.404Z,22.12
2023-01-24T10:14:28.678Z,22.15
2023-01-24T10:15:32.897Z,22.17
2023-01-24T10:16:37.283Z,22.2
2023-01-24T10:17:41.665Z,22.2
2023-01-24T10:18:45.916Z,22.19
2023-01-24T10:19:50.143Z,22.17
2023-01-24T10:20:54.458Z,22.16
2023-01-24T10:21:58.681Z,22.14
2023-01-24T10:23:02.942Z,22.12
2023-01-24T10:24:07.291Z,22.1
2023-01-24T10:25:11.649Z,22.04
2023-01-24T10:26:16.002Z,22.02
2023-01-24T10:27:20.250Z,22.01
2023-01-24T10:28:24.528Z,21.99
2023-01-24T10:29:28.809Z,21.95
2023-01-24T10:30:33.074Z,21.93
2023-01-24T10:31:37.627Z,21.91
2023-01-24T10:32:42.514Z,21.89
2023-01-24T10:33:46.791Z,21.87
2023-01-24T10:34:51.111Z,21.85
2023-01-24T10:35:55.344Z,21.82
2023-01-24T10:36:59.634Z,21.8
2023-01-24T10:38:03.886Z,21.77
2023-01-24T10:39:08.108Z,21.74
2023-01-24T10:40:12.346Z,21.73
2023-01-24T10:41:18.945Z,21.71
2023-01-24T10:42:24.130Z,21.68
2023-01-24T10:43:28.339Z,21.66
2023-01-24T10:44:32.587Z,21.64
2023-01-24T10:45:36.861Z,21.6
2023-01-24T10:46:41.206Z,21.6
2023-01-24T10:47:45.474Z,21.6
2023-01-24T10:48:49.723Z,21.58
2023-01-24T10:49:53.997Z,21.57
2023-01-24T10:50:58.232Z,21.57
2023-01-24T10:52:02.558Z,21.55
2023-01-24T10:53:06.773Z,21.53
2023-01-24T10:54:11.016Z,21.51
2023-01-24T10:55:15.257Z,21.5
2023-01-24T10:56:22.347Z,21.52
2023-01-24T10:57:26.611Z,21.51
2023-01-24T10:58:31.180Z,21.5
2023-01-24T10:59:41.669Z,21.48
2023-01-24T11:00:45.963Z,21.46
2023-01-24T11:01:50.343Z,21.46
2023-01-24T11:02:54.617Z,21.47
2023-01-24T11:03:58.853Z,21.47
2023-01-24T11:05:03.082Z,21.48
2023-01-24T11:06:07.447Z,21.45
2023-01-24T11:07:11.716Z,21.44
2023-01-24T11:08:15.932Z,21.42
2023-01-24T11:09:20.163Z,21.44
2023-01-24T11:10:24.434Z,21.45
2023-01-24T11:11:28.858Z,21.44
2023-01-24T11:12:33.098Z,21.42
2023-01-24T11:13:37.353Z,21.41
2023-01-24T11:14:41.577Z,21.37
2023-01-24T11:15:46.016Z,21.36
2023-01-24T11:16:50.450Z,21.35
2023-01-24T11:17:54.894Z,21.38
2023-01-24T11:18:59.159Z,21.41
2023-01-24T11:20:03.435Z,21.43
2023-01-24T11:21:07.644Z,21.46
2023-01-24T11:22:11.887Z,21.5
2023-01-24T11:23:16.139Z,21.54
2023-01-24T11:24:20.491Z,21.59
2023-01-24T11:25:25.281Z,21.66
2023-01-24T11:26:29.727Z,21.71
2023-01-24T11:27:33.960Z,21.75
2023-01-24T11:28:38.217Z,21.79
2023-01-24T11:29:42.454Z,21.83
2023-01-24T11:30:46.797Z,21.84
2023-01-24T11:31:51.175Z,21.85
2023-01-24T11:32:55.895Z,21.87
2023-01-24T11:34:00.121Z,21.87
2023-01-24T11:35:04.386Z,21.87
2023-01-24T11:36:08.643Z,21.86
2023-01-24T11:37:12.985Z,21.85
2023-01-24T11:38:17.253Z,21.83
2023-01-24T11:39:21.507Z,21.8
2023-01-24T11:40:25.751Z,21.8
2023-01-24T11:41:30.000Z,21.79
2023-01-24T11:42:34.246Z,21.79
2023-01-24T11:43:38.458Z,21.78
2023-01-24T11:44:42.726Z,21.76
2023-01-24T11:45:47.033Z,21.72
2023-01-24T11:46:51.250Z,21.73
2023-01-24T11:47:55.496Z,21.71
2023-01-24T11:48:59.772Z,21.67
2023-01-24T11:50:04.036Z,21.67
2023-01-24T11:51:13.586Z,21.66
2023-01-24T11:52:18.140Z,21.66
2023-01-24T11:53:22.356Z,21.64
2023-01-24T11:54:26.624Z,21.63
2023-01-24T11:55:30.881Z,21.6
2023-01-24T11:56:35.186Z,21.58
2023-01-24T11:57:39.456Z,21.57
2023-01-24T11:58:43.690Z,21.56
2023-01-24T11:59:47.938Z,21.55
2023-01-24T12:00:52.227Z,21.53
2023-01-24T12:01:56.572Z,21.53
2023-01-24T12:03:00.840Z,21.51
2023-01-24T12:04:05.526Z,21.51
2023-01-24T12:05:09.965Z,21.5
2023-01-24T12:06:14.211Z,21.5
2023-01-24T12:07:18.435Z,21.49
2023-01-24T12:08:22.670Z,21.49
2023-01-24T12:09:26.938Z,21.47
2023-01-24T12:10:31.174Z,21.48
2023-01-24T12:11:36.890Z,21.48
2023-01-24T12:12:54.301Z,21.47
2023-01-24T12:13:59.930Z,21.47
2023-01-24T12:15:04.164Z,21.47
2023-01-24T12:16:10.865Z,21.45
2023-01-24T12:17:24.135Z,21.46
2023-01-24T12:18:32.878Z,21.46
2023-01-24T12:19:37.277Z,21.46
2023-01-24T12:20:41.595Z,21.45
2023-01-24T12:21:45.846Z,21.43
2023-01-24T12:22:50.111Z,21.42
2023-01-24T12:23:54.415Z,21.37
2023-01-24T12:24:58.945Z,21.36
2023-01-24T12:26:03.192Z,21.35
2023-01-24T12:27:07.423Z,21.35
2023-01-24T12:28:11.687Z,21.36
2023-01-24T12:29:16.036Z,21.38
2023-01-24T12:30:20.704Z,21.39
2023-01-24T12:31:26.157Z,21.41
2023-01-24T12:32:30.944Z,21.42
2023-01-24T12:33:35.183Z,21.46
2023-01-24T12:34:39.419Z,21.5
2023-01-24T12:35:43.659Z,21.52
2023-01-24T12:36:47.871Z,21.59
2023-01-24T12:37:59.644Z,21.66
2023-01-24T12:39:12.373Z,21.71
2023-01-24T12:40:16.612Z,21.72
2023-01-24T12:41:20.825Z,21.75
2023-01-24T12:42:25.061Z,21.78
2023-01-24T12:43:29.312Z,21.8
2023-01-24T12:44:33.695Z,21.83
2023-01-24T12:45:37.941Z,21.83
2023-01-24T12:46:42.263Z,21.81
2023-01-24T12:47:46.648Z,21.82
2023-01-24T12:48:50.884Z,21.82
2023-01-24T12:49:55.117Z,21.83
2023-01-24T12:50:59.391Z,21.84
2023-01-24T12:52:03.642Z,21.8
2023-01-24T12:53:07.919Z,21.78
2023-01-24T12:54:12.524Z,21.78
2023-01-24T12:55:16.790Z,21.76
2023-01-24T12:56:21.045Z,21.74
2023-01-24T12:57:25.315Z,21.74
2023-01-24T12:58:29.569Z,21.73
2023-01-24T12:59:33.813Z,21.7
2023-01-24T13:00:38.112Z,21.71
2023-01-24T13:01:42.529Z,21.69
2023-01-24T13:02:46.979Z,21.67
2023-01-24T13:03:51.323Z,21.65
2023-01-24T13:04:55.593Z,21.64
2023-01-24T13:05:59.926Z,21.61
2023-01-24T13:07:04.159Z,21.58
2023-01-24T13:08:08.380Z,21.58
2023-01-24T13:09:12.628Z,21.55
2023-01-24T13:10:16.882Z,21.55
2023-01-24T13:11:21.097Z,21.55
2023-01-24T13:12:25.337Z,21.54
2023-01-24T13:13:29.586Z,21.53
2023-01-24T13:14:33.861Z,21.52
2023-01-24T13:15:38.132Z,21.52
2023-01-24T13:16:42.523Z,21.49
2023-01-24T13:17:46.953Z,21.49
2023-01-24T13:18:51.203Z,21.49
2023-01-24T13:19:55.442Z,21.47
2023-01-24T13:20:59.753Z,21.48
2023-01-24T13:22:04.005Z,21.47
2023-01-24T13:23:08.287Z,21.48
2023-01-24T13:24:12.598Z,21.46
2023-01-24T13:25:16.983Z,21.47
2023-01-24T13:26:21.262Z,21.46
2023-01-24T13:27:25.577Z,21.47
2023-01-24T13:28:29.805Z,21.47
2023-01-24T13:29:34.219Z,21.47
2023-01-24T13:30:38.457Z,21.45
2023-01-24T13:31:42.813Z,21.47
2023-01-24T13:32:49.324Z,21.47
2023-01-24T13:33:53.638Z,21.44
2023-01-24T13:34:57.950Z,21.41
2023-01-24T13:36:02.200Z,21.38
2023-01-24T13:37:06.480Z,21.35
2023-01-24T13:38:10.858Z,21.34
2023-01-24T13:39:15.106Z,21.34
2023-01-24T13:40:19.352Z,21.33
2023-01-24T13:41:23.613Z,21.32
2023-01-24T13:42:27.863Z,21.3
2023-01-24T13:43:32.190Z,21.31
2023-01-24T13:44:36.424Z,21.32
2023-01-24T13:45:40.738Z,21.3
2023-01-24T13:46:45.119Z,21.29
2023-01-24T13:47:49.436Z,21.27
2023-01-24T13:48:53.715Z,21.27
2023-01-24T13:49:58.089Z,21.25
2023-01-24T13:51:02.348Z,21.26
2023-01-24T13:52:06.615Z,21.26
2023-01-24T13:53:11.010Z,21.25
2023-01-24T13:54:15.317Z,21.24